Monday, December 18, 2017, 9:31 AM EST
Back to Local

KMTN, Baltimore / Martin

Location: Middle River, MD, United States Lat: 39.333
Local Time: 9:31 AM EST (14:31 GMT) Lon: -76.417
Time Zone: US/Eastern Elev: 22 ft

Show me the last for .
Show Decoded

2017-12-18 08:45 METAR KMTN 181345Z 00000KT 7SM MIFG BKN060 04/02 A3015 =
2017-12-18 07:45 METAR KMTN 181245Z 00000KT 7SM MIFG SCT046 02/01 A3014 =
2017-12-18 06:45 METAR KMTN 181145Z 00000KT 10SM BKN050 04/02 A3014 =
2017-12-18 05:45 METAR KMTN 181045Z 00000KT 10SM OVC050 04/02 A3013 RMK FIRST =
2017-12-18 05:36 METAR KMTN 181036Z AUTO 00000KT 10SM OVC050 03/01 A3014 RMK AO2
2017-12-18 05:30 METAR KMTN 181030Z AUTO 00000KT 10SM OVC050 03/01 A3014 RMK AO2 =
2017-12-18 05:12 METAR KMTN 181012Z AUTO 00000KT 10SM OVC050 04/01 A3014 RMK AO2 =
2017-12-18 04:51 METAR KMTN 180951Z AUTO 00000KT 10SM OVC050 04/01 A3014 RMK AO2 =
2017-12-18 04:30 METAR KMTN 180930Z AUTO 00000KT 10SM OVC050 04/01 A3013 RMK AO2 =
2017-12-18 04:12 METAR KMTN 180912Z AUTO 00000KT 10SM OVC048 04/01 A3013 RMK AO2 =
2017-12-18 03:51 METAR KMTN 180851Z AUTO 00000KT 10SM OVC050 03/01 A3014 RMK AO2 =
2017-12-18 03:30 METAR KMTN 180830Z AUTO 00000KT 10SM OVC050 03/02 A3014 RMK AO2 =
2017-12-18 03:12 METAR KMTN 180812Z AUTO 00000KT 10SM OVC050 04/01 A3014 RMK AO2 =
2017-12-18 02:51 METAR KMTN 180751Z AUTO 00000KT 10SM OVC050 04/02 A3015 RMK AO2 =
2017-12-18 02:30 METAR KMTN 180730Z AUTO 00000KT 10SM SCT050 OVC055 03/01 A3015 RMK AO2 =
2017-12-18 02:12 METAR KMTN 180712Z AUTO 00000KT 10SM BKN047 OVC050 04/02 A3015 RMK AO2 =
2017-12-18 01:51 METAR KMTN 180651Z AUTO 00000KT 10SM OVC050 04/01 A3014 RMK AO2 =
2017-12-18 01:30 METAR KMTN 180630Z AUTO 00000KT 10SM OVC050 04/01 A3015 RMK AO2 =
2017-12-18 01:12 METAR KMTN 180612Z AUTO 00000KT 10SM SCT040 OVC050 04/01 A3016 RMK AO2 =
2017-12-18 00:51 METAR KMTN 180551Z AUTO 00000KT 10SM BKN042 BKN047 OVC050 04/01 A3017 RMK AO2 =
2017-12-18 00:30 METAR KMTN 180530Z AUTO 00000KT 10SM BKN042 OVC055 04/01 A3017 RMK AO2 =
2017-12-18 00:12 METAR KMTN 180512Z AUTO 00000KT 10SM BKN042 OVC065 04/01 A3018 RMK AO2 =
2017-12-17 23:51 METAR KMTN 180451Z AUTO 00000KT 10SM SCT050 OVC065 04/01 A3018 RMK AO2 =
2017-12-17 23:30 METAR KMTN 180430Z AUTO 00000KT 10SM OVC050 04/01 A3018 RMK AO2 =
2017-12-17 23:12 METAR KMTN 180412Z AUTO 03003KT 10SM -RA OVC055 04/01 A3019 RMK AO2 =
2017-12-17 22:51 METAR KMTN 180351Z AUTO 00000KT 10SM -RA BKN055 BKN065 OVC080 04/01 A3019 RMK
                 AO2 =
2017-12-17 22:30 METAR KMTN 180330Z AUTO 00000KT 10SM OVC090 04/01 A3019 RMK AO2 =
2017-12-17 22:12 METAR KMTN 180312Z AUTO 00000KT 10SM -DZ SCT075 OVC090 04/01 A3019 RMK AO2 =
2017-12-17 21:45 METAR KMTN 180245Z 00000KT 10SM OVC100 04/01 A3020 RMK LAST =
2017-12-17 20:45 METAR KMTN 180145Z 00000KT 10SM OVC110 04/02 A3020 =
2017-12-17 19:45 METAR KMTN 180045Z 00000KT 10SM SCT070 BKN075 OVC110 04/03 A3022 =
2017-12-17 18:45 METAR KMTN 172345Z 00000KT 10SM BKN070 OVC090 04/03 A3023 =
2017-12-17 17:45 METAR KMTN 172245Z 00000KT 10SM SCT070 BKN090 OVC110 05/01 A3025 =
2017-12-17 16:45 METAR KMTN 172145Z 00000KT 10SM SCT120 OVC140 05/01 A3021 =
2017-12-17 15:45 METAR KMTN 172045Z 00000KT 10SM OVC120 06/02 A3022 =
2017-12-17 14:45 METAR KMTN 171945Z 00000KT 10SM BKN150 OVC200 06/00 A3023 =
2017-12-17 13:45 METAR KMTN 171845Z 00000KT 10SM OVC100 06/01 A3023 =
2017-12-17 12:45 METAR KMTN 171745Z 14005KT 10SM BKN150 06/03 A3025 =
2017-12-17 12:25 METAR KMTN 171725Z 16005KT 10SM BKN150 06/02 A3025 =
2017-12-17 11:45 METAR KMTN 171645Z 00000KT 10SM BKN200 07/01 A3028 =
2017-12-17 10:54 METAR KMTN 171554Z 00000KT 10SM BKN200 06/01 A3029 =
2017-12-17 09:45 METAR KMTN 171445Z 00000KT 10SM BKN200 03/01 A3029 =

Support USWX by starting your Amazon purchase here.